createdAt,value
2023-05-20T00:00:59.140Z,9.85
2023-05-20T00:03:26.950Z,9.80
2023-05-20T00:05:54.705Z,9.79
2023-05-20T00:08:23.670Z,9.76
2023-05-20T00:10:51.293Z,9.77
2023-05-20T00:13:18.916Z,9.77
2023-05-20T00:15:47.088Z,9.76
2023-05-20T00:18:14.799Z,9.72
2023-05-20T00:20:42.467Z,9.71
2023-05-20T00:23:10.132Z,9.72
2023-05-20T00:25:39.086Z,9.70
2023-05-20T00:28:07.370Z,9.73
2023-05-20T00:30:34.972Z,9.74
2023-05-20T00:33:02.791Z,9.74
2023-05-20T00:35:30.499Z,9.73
2023-05-20T00:37:58.128Z,9.69
2023-05-20T00:40:26.060Z,9.67
2023-05-20T00:42:55.873Z,9.67
2023-05-20T00:45:23.643Z,9.64
2023-05-20T00:47:51.345Z,9.61
2023-05-20T00:50:19.279Z,9.59
2023-05-20T00:52:48.297Z,9.57
2023-05-20T00:55:15.987Z,9.56
2023-05-20T00:57:44.032Z,9.53
2023-05-20T01:00:14.970Z,9.51
2023-05-20T01:02:42.865Z,9.48
2023-05-20T01:05:11.067Z,9.46
2023-05-20T01:07:39.178Z,9.46
2023-05-20T01:10:07.890Z,9.44
2023-05-20T01:12:40.360Z,9.43
2023-05-20T01:15:11.234Z,9.44
2023-05-20T01:17:44.948Z,9.41
2023-05-20T01:20:14.185Z,9.36
2023-05-20T01:22:49.924Z,9.33
2023-05-20T01:25:17.718Z,9.33
2023-05-20T01:27:47.020Z,9.30
2023-05-20T01:30:15.632Z,9.28
2023-05-20T01:32:47.777Z,9.29
2023-05-20T01:35:17.124Z,9.28
2023-05-20T01:37:45.611Z,9.27
2023-05-20T01:40:16.789Z,9.23
2023-05-20T01:42:46.009Z,9.16
2023-05-20T01:45:13.803Z,9.12
2023-05-20T01:47:41.612Z,9.06
2023-05-20T01:50:10.148Z,9.03
2023-05-20T01:52:37.747Z,8.99
2023-05-20T01:55:06.171Z,8.97
2023-05-20T01:57:35.220Z,8.91
2023-05-20T02:00:03.812Z,8.87
2023-05-20T02:02:31.479Z,8.88
2023-05-20T02:04:59.205Z,8.88
2023-05-20T02:07:26.935Z,8.86
2023-05-20T02:09:54.657Z,8.86
2023-05-20T02:12:22.264Z,8.84
2023-05-20T02:14:51.279Z,8.85
2023-05-20T02:17:19.036Z,8.84
2023-05-20T02:19:47.020Z,8.83
2023-05-20T02:22:14.977Z,8.85
2023-05-20T02:24:43.649Z,8.88
2023-05-20T02:27:11.898Z,8.94
2023-05-20T02:29:39.586Z,8.98
2023-05-20T02:32:08.962Z,8.99
2023-05-20T02:34:36.598Z,8.98
2023-05-20T02:37:04.356Z,9.01
2023-05-20T02:39:32.025Z,9.01
2023-05-20T02:41:59.629Z,9.04
2023-05-20T02:44:27.265Z,9.06
2023-05-20T02:46:55.118Z,9.07
2023-05-20T02:49:24.389Z,9.09
2023-05-20T02:51:52.113Z,9.08
2023-05-20T02:54:19.708Z,9.09
2023-05-20T02:56:47.510Z,9.06
2023-05-20T02:59:15.510Z,9.06
2023-05-20T03:01:43.240Z,9.02
2023-05-20T03:04:11.578Z,9.00
2023-05-20T03:06:44.616Z,9.02
2023-05-20T03:09:12.717Z,9.03
2023-05-20T03:11:40.327Z,9.03
2023-05-20T03:14:07.972Z,9.07
2023-05-20T03:16:36.297Z,9.08
2023-05-20T03:19:03.995Z,9.13
2023-05-20T03:21:32.417Z,9.13
2023-05-20T03:24:01.477Z,9.13
2023-05-20T03:26:30.533Z,9.16
2023-05-20T03:28:58.294Z,9.22
2023-05-20T03:31:26.020Z,9.22
2023-05-20T03:33:53.684Z,9.28
2023-05-20T03:36:21.357Z,9.38
2023-05-20T03:38:49.412Z,9.42
2023-05-20T03:41:18.465Z,9.49
2023-05-20T03:43:46.143Z,9.49
2023-05-20T03:46:13.803Z,9.58
2023-05-20T03:48:41.561Z,9.66
2023-05-20T03:51:09.280Z,9.72
2023-05-20T03:53:36.905Z,9.82
2023-05-20T03:56:05.192Z,9.80
2023-05-20T03:58:35.328Z,9.80
2023-05-20T04:01:03.122Z,9.90
2023-05-20T04:03:31.485Z,9.92
2023-05-20T04:05:59.246Z,9.94
2023-05-20T04:08:26.948Z,9.98
2023-05-20T04:10:57.097Z,9.94
2023-05-20T04:13:26.221Z,10.01
2023-05-20T04:15:55.348Z,10.06
2023-05-20T04:18:22.948Z,10.10
2023-05-20T04:20:51.130Z,10.17
2023-05-20T04:23:18.713Z,10.21
2023-05-20T04:25:46.364Z,10.31
2023-05-20T04:28:16.201Z,10.52
2023-05-20T04:30:45.106Z,10.70
2023-05-20T04:33:14.897Z,10.91
2023-05-20T04:35:44.228Z,11.15
2023-05-20T04:38:11.915Z,11.43
2023-05-20T04:40:39.587Z,11.74
2023-05-20T04:43:07.224Z,12.11
2023-05-20T04:45:36.634Z,12.44
2023-05-20T04:48:04.339Z,12.74
2023-05-20T04:50:33.321Z,13.23
2023-05-20T04:53:00.997Z,13.56
2023-05-20T04:55:28.839Z,13.76
2023-05-20T04:57:56.500Z,14.23
2023-05-20T05:00:24.854Z,14.71
2023-05-20T05:02:52.612Z,14.62
2023-05-20T05:05:20.358Z,15.03
2023-05-20T05:07:49.322Z,15.22
2023-05-20T05:10:16.976Z,15.32
2023-05-20T05:12:44.616Z,14.86
2023-05-20T05:15:12.617Z,15.25
2023-05-20T05:17:40.271Z,15.55
2023-05-20T05:20:09.704Z,15.65
2023-05-20T05:22:39.632Z,15.84
2023-05-20T05:25:10.567Z,15.89
2023-05-20T05:27:38.459Z,16.15
2023-05-20T05:30:08.011Z,16.63
2023-05-20T05:32:36.363Z,17.14
2023-05-20T05:35:05.559Z,17.24
2023-05-20T05:37:34.625Z,17.72
2023-05-20T05:40:02.224Z,18.22
2023-05-20T05:42:31.236Z,18.39
2023-05-20T05:45:00.290Z,19.06
2023-05-20T05:47:32.331Z,19.28
2023-05-20T05:50:00.490Z,19.01
2023-05-20T05:52:28.552Z,19.03
2023-05-20T05:54:56.299Z,19.55
2023-05-20T05:57:24.057Z,19.76
2023-05-20T05:59:53.174Z,20.11
2023-05-20T06:02:20.848Z,20.25
2023-05-20T06:04:48.498Z,20.31
2023-05-20T06:07:16.714Z,20.38
2023-05-20T06:09:44.333Z,20.40
2023-05-20T06:12:13.874Z,21.06
2023-05-20T06:14:41.795Z,21.21
2023-05-20T06:17:10.789Z,21.60
2023-05-20T06:19:38.488Z,21.85
2023-05-20T06:22:06.192Z,21.88
2023-05-20T06:24:35.809Z,21.55
2023-05-20T06:27:03.968Z,22.05
2023-05-20T06:29:31.602Z,22.09
2023-05-20T06:31:59.310Z,21.79
2023-05-20T06:34:28.318Z,21.70
2023-05-20T06:36:56.393Z,21.32
2023-05-20T06:39:24.142Z,21.03
2023-05-20T06:41:52.081Z,21.17
2023-05-20T06:44:19.971Z,21.48
2023-05-20T06:46:47.754Z,21.71
2023-05-20T06:49:15.473Z,21.46
2023-05-20T06:51:45.102Z,21.36
2023-05-20T06:54:12.780Z,21.57
2023-05-20T06:56:40.424Z,21.33
2023-05-20T06:59:08.030Z,21.05
2023-05-20T07:01:35.674Z,21.06
2023-05-20T07:04:03.479Z,21.36
2023-05-20T07:06:31.491Z,21.46
2023-05-20T07:09:00.913Z,21.57
2023-05-20T07:11:28.687Z,21.47
2023-05-20T07:13:57.115Z,21.20
2023-05-20T07:16:24.860Z,21.36
2023-05-20T07:18:52.798Z,21.34
2023-05-20T07:21:20.482Z,20.93
2023-05-20T07:23:48.124Z,21.07
2023-05-20T07:26:17.126Z,21.21
2023-05-20T07:28:45.625Z,20.78
2023-05-20T07:31:13.436Z,21.25
2023-05-20T07:33:41.181Z,20.95
2023-05-20T07:36:10.463Z,20.83
2023-05-20T07:38:40.998Z,20.94
2023-05-20T07:41:09.237Z,20.94
2023-05-20T07:43:38.271Z,20.77
2023-05-20T07:46:05.889Z,20.45
2023-05-20T07:48:33.567Z,19.82
2023-05-20T07:51:01.345Z,19.68
2023-05-20T07:53:28.974Z,19.75
2023-05-20T07:55:57.359Z,19.01
2023-05-20T07:58:24.938Z,18.98
2023-05-20T08:00:53.917Z,18.83
2023-05-20T08:03:22.427Z,18.62
2023-05-20T08:05:51.017Z,18.28
2023-05-20T08:08:18.672Z,18.17
2023-05-20T08:10:46.344Z,18.00
2023-05-20T08:13:13.964Z,17.89
2023-05-20T08:15:41.571Z,17.75
2023-05-20T08:18:10.895Z,17.76
2023-05-20T08:20:38.656Z,17.49
2023-05-20T08:23:06.275Z,17.75
2023-05-20T08:25:34.123Z,17.97
2023-05-20T08:28:03.834Z,18.09
2023-05-20T08:30:31.632Z,18.17
2023-05-20T08:32:59.905Z,18.09
2023-05-20T08:35:29.022Z,17.67
2023-05-20T08:37:56.740Z,17.60
2023-05-20T08:40:24.543Z,17.47
2023-05-20T08:42:53.333Z,17.29
2023-05-20T08:45:26.460Z,17.25
2023-05-20T08:47:54.243Z,17.12
2023-05-20T08:50:22.218Z,17.26
2023-05-20T08:52:51.677Z,17.00
2023-05-20T08:55:25.067Z,16.98
2023-05-20T08:57:54.507Z,17.06
2023-05-20T09:00:27.030Z,17.08
2023-05-20T09:02:54.798Z,17.30
2023-05-20T09:05:23.467Z,17.24
2023-05-20T09:07:52.462Z,17.25
2023-05-20T09:10:20.828Z,17.23
2023-05-20T09:12:48.812Z,17.26
2023-05-20T09:15:16.469Z,17.22
2023-05-20T09:17:44.217Z,17.25
2023-05-20T09:20:12.554Z,17.28
2023-05-20T09:22:40.975Z,17.35
2023-05-20T09:25:12.335Z,17.36
2023-05-20T09:27:41.028Z,17.28
2023-05-20T09:30:12.675Z,17.64
2023-05-20T09:32:40.500Z,17.64
2023-05-20T09:35:09.184Z,17.45
2023-05-20T09:37:38.050Z,17.44
2023-05-20T09:40:09.220Z,17.30
2023-05-20T09:42:41.483Z,17.52
2023-05-20T09:45:10.361Z,17.51
2023-05-20T09:47:40.666Z,17.38
2023-05-20T09:50:09.971Z,17.59
2023-05-20T09:52:39.106Z,17.49
2023-05-20T09:55:08.438Z,17.52
2023-05-20T09:57:36.438Z,17.60
2023-05-20T10:00:08.485Z,17.43
2023-05-20T10:02:37.668Z,17.77
2023-05-20T10:05:12.258Z,17.77
2023-05-20T10:08:11.784Z,17.65
2023-05-20T10:10:47.854Z,17.68
2023-05-20T10:13:26.410Z,17.90
2023-05-20T10:16:03.273Z,17.89
2023-05-20T10:21:22.315Z,17.97
2023-05-20T10:23:50.042Z,17.82
2023-05-20T10:26:17.814Z,17.68
2023-05-20T10:28:46.811Z,17.83
2023-05-20T10:31:19.855Z,17.81
2023-05-20T10:33:48.477Z,18.13
2023-05-20T10:36:27.633Z,18.45
2023-05-20T10:38:56.175Z,18.47
2023-05-20T10:41:26.546Z,18.12
2023-05-20T10:44:04.564Z,18.26
2023-05-20T10:46:46.308Z,17.84
2023-05-20T10:49:26.776Z,17.98
2023-05-20T10:51:55.558Z,18.28
2023-05-20T10:54:24.154Z,18.56
2023-05-20T10:56:53.400Z,18.40
2023-05-20T10:59:22.581Z,18.10
2023-05-20T11:01:52.288Z,18.21
2023-05-20T11:04:20.654Z,18.13
2023-05-20T11:06:52.236Z,18.19
2023-05-20T11:09:19.892Z,18.17
2023-05-20T11:11:47.843Z,18.20
2023-05-20T11:14:17.236Z,18.44
2023-05-20T11:16:45.177Z,18.69
2023-05-20T11:19:17.345Z,18.93
2023-05-20T11:21:45.714Z,19.02
2023-05-20T11:24:13.524Z,18.92
2023-05-20T11:26:41.781Z,18.93
2023-05-20T11:29:09.741Z,18.73
2023-05-20T11:31:39.029Z,18.94
2023-05-20T11:34:06.810Z,19.24
2023-05-20T11:36:35.898Z,18.99
2023-05-20T11:39:05.516Z,19.25
2023-05-20T11:41:33.166Z,19.13
2023-05-20T11:44:01.537Z,19.22
2023-05-20T11:46:29.429Z,19.26
2023-05-20T11:48:57.967Z,19.10
2023-05-20T11:51:27.631Z,19.02
2023-05-20T11:54:01.128Z,18.57
2023-05-20T11:56:29.961Z,18.62
2023-05-20T11:59:00.298Z,19.01
2023-05-20T12:01:28.906Z,19.07
2023-05-20T12:03:56.915Z,18.84
2023-05-20T12:06:24.666Z,19.12
2023-05-20T12:08:52.283Z,19.39
2023-05-20T12:11:21.781Z,19.04
2023-05-20T12:13:50.315Z,19.01
2023-05-20T12:16:18.051Z,18.86
2023-05-20T12:18:45.815Z,18.86
2023-05-20T12:21:13.701Z,18.89
2023-05-20T12:23:41.345Z,18.71
2023-05-20T12:26:08.947Z,18.76
2023-05-20T12:28:37.912Z,18.53
2023-05-20T12:31:05.995Z,18.99
2023-05-20T12:33:33.658Z,18.95
2023-05-20T12:36:01.364Z,18.46
2023-05-20T12:38:29.256Z,18.29
2023-05-20T12:40:57.029Z,18.28
2023-05-20T12:43:24.716Z,18.50
2023-05-20T12:45:53.813Z,18.32
2023-05-20T12:48:21.470Z,18.35
2023-05-20T12:50:49.104Z,18.14
2023-05-20T12:53:16.882Z,18.22
2023-05-20T12:55:44.493Z,18.03
2023-05-20T12:58:12.121Z,18.32
2023-05-20T13:00:39.805Z,18.48
2023-05-20T13:03:08.992Z,18.22
2023-05-20T13:05:36.745Z,18.04
2023-05-20T13:08:04.472Z,18.32
2023-05-20T13:10:32.257Z,18.05
2023-05-20T13:13:00.194Z,17.90
2023-05-20T13:15:27.924Z,18.14
2023-05-20T13:17:56.333Z,18.14
2023-05-20T13:20:25.987Z,18.08
2023-05-20T13:22:53.698Z,18.22
2023-05-20T13:25:21.583Z,18.11
2023-05-20T13:27:49.306Z,18.11
2023-05-20T13:30:16.892Z,18.09
2023-05-20T13:32:44.569Z,18.13
2023-05-20T13:35:13.006Z,17.89
2023-05-20T13:37:42.122Z,17.94
2023-05-20T13:40:10.682Z,17.85
2023-05-20T13:42:38.550Z,17.93
2023-05-20T13:45:06.934Z,17.60
2023-05-20T13:47:34.628Z,17.79
2023-05-20T13:50:03.312Z,18.00
2023-05-20T13:52:31.173Z,17.79
2023-05-20T13:55:00.243Z,17.74
2023-05-20T13:57:27.957Z,17.66
2023-05-20T13:59:55.710Z,17.75
2023-05-20T14:02:23.370Z,17.92
2023-05-20T14:04:50.967Z,18.02
2023-05-20T14:07:18.860Z,17.92
2023-05-20T14:09:46.584Z,17.99
2023-05-20T14:12:15.653Z,17.76
2023-05-20T14:14:43.304Z,17.96
2023-05-20T14:17:11.364Z,17.69
2023-05-20T14:19:39.168Z,17.71
2023-05-20T14:22:07.163Z,17.85
2023-05-20T14:24:34.855Z,17.48
2023-05-20T14:27:02.475Z,17.49
2023-05-20T14:29:31.463Z,17.54
2023-05-20T14:32:01.315Z,17.64
2023-05-20T14:34:28.971Z,17.90
2023-05-20T14:36:57.109Z,17.48
2023-05-20T14:39:24.738Z,17.52
2023-05-20T14:41:52.393Z,17.30
2023-05-20T14:44:19.993Z,17.43
2023-05-20T14:46:49.081Z,17.50
2023-05-20T14:49:16.791Z,17.50
2023-05-20T14:51:44.580Z,17.67
2023-05-20T14:54:14.023Z,17.58
2023-05-20T14:56:41.919Z,17.65
2023-05-20T14:59:09.667Z,17.68
2023-05-20T15:01:37.394Z,17.80
2023-05-20T15:04:06.962Z,17.66
2023-05-20T15:06:35.843Z,17.58
2023-05-20T15:09:04.115Z,17.48
2023-05-20T15:11:31.685Z,17.53
2023-05-20T15:13:59.446Z,17.45
2023-05-20T15:16:28.648Z,17.36
2023-05-20T15:18:56.452Z,17.44
2023-05-20T15:21:25.657Z,17.44
2023-05-20T15:23:53.453Z,17.42
2023-05-20T15:26:21.743Z,17.29
2023-05-20T15:28:49.437Z,17.17
2023-05-20T15:31:17.130Z,17.15
2023-05-20T15:33:44.872Z,17.06
2023-05-20T15:36:12.659Z,16.93
2023-05-20T15:38:41.781Z,17.11
2023-05-20T15:41:12.274Z,17.14
2023-05-20T15:43:40.311Z,17.19
2023-05-20T15:46:08.026Z,17.21
2023-05-20T15:48:37.723Z,17.10
2023-05-20T15:51:05.961Z,17.07
2023-05-20T15:53:33.696Z,17.20
2023-05-20T15:56:02.804Z,17.37
2023-05-20T15:58:30.449Z,17.39
2023-05-20T16:00:58.232Z,17.34
2023-05-20T16:03:25.846Z,17.11
2023-05-20T16:05:53.563Z,17.14
2023-05-20T16:08:23.750Z,16.95
2023-05-20T16:10:51.406Z,16.78
2023-05-20T16:13:20.501Z,16.79
2023-05-20T16:15:50.155Z,16.93
2023-05-20T16:18:17.973Z,16.94
2023-05-20T16:20:45.653Z,16.98
2023-05-20T16:23:13.278Z,16.97
2023-05-20T16:25:41.173Z,16.93
2023-05-20T16:28:08.809Z,16.89
2023-05-20T16:30:37.793Z,16.81
2023-05-20T16:33:05.607Z,16.67
2023-05-20T16:35:33.206Z,16.65
2023-05-20T16:38:00.932Z,16.63
2023-05-20T16:40:28.608Z,16.45
2023-05-20T16:42:56.252Z,16.50
2023-05-20T16:45:24.026Z,16.48
2023-05-20T16:47:53.091Z,16.54
2023-05-20T16:50:20.918Z,16.47
2023-05-20T16:52:48.590Z,16.45
2023-05-20T16:55:16.454Z,16.35
2023-05-20T16:57:44.350Z,16.28
2023-05-20T17:00:13.116Z,16.41
2023-05-20T17:02:40.813Z,16.39
2023-05-20T17:05:10.632Z,16.31
2023-05-20T17:07:39.345Z,16.10
2023-05-20T17:10:08.241Z,16.10
2023-05-20T17:12:35.842Z,16.18
2023-05-20T17:15:03.679Z,16.14
2023-05-20T17:17:31.298Z,16.16
2023-05-20T17:19:58.914Z,16.20
2023-05-20T17:22:27.939Z,16.13
2023-05-20T17:24:55.571Z,16.14
2023-05-20T17:27:23.473Z,15.99
2023-05-20T17:29:51.220Z,15.91
2023-05-20T17:32:18.844Z,15.84
2023-05-20T17:34:46.454Z,15.80
2023-05-20T17:37:14.042Z,15.77
2023-05-20T17:39:44.380Z,15.73
2023-05-20T17:42:12.060Z,15.68
2023-05-20T17:44:39.653Z,15.56
2023-05-20T17:47:07.468Z,15.59
2023-05-20T17:49:35.108Z,15.59
2023-05-20T17:52:02.680Z,15.60
2023-05-20T17:54:30.408Z,15.39
2023-05-20T17:56:59.535Z,15.28
2023-05-20T17:59:27.478Z,15.30
2023-05-20T18:01:55.765Z,15.37
2023-05-20T18:04:23.522Z,15.21
2023-05-20T18:06:51.127Z,15.22
2023-05-20T18:09:19.416Z,15.17
2023-05-20T18:11:47.068Z,15.07
2023-05-20T18:14:18.627Z,15.03
2023-05-20T18:16:46.386Z,14.96
2023-05-20T18:19:15.042Z,14.94
2023-05-20T18:21:42.707Z,14.94
2023-05-20T18:24:11.389Z,14.84
2023-05-20T18:26:39.352Z,14.73
2023-05-20T18:29:07.172Z,14.82
2023-05-20T18:31:37.121Z,14.86
2023-05-20T18:34:05.174Z,14.93
2023-05-20T18:36:33.292Z,14.92
2023-05-20T18:39:04.759Z,14.94
2023-05-20T18:41:46.143Z,14.99
2023-05-20T18:44:17.391Z,15.05
2023-05-20T18:46:48.709Z,14.86
2023-05-20T18:49:16.523Z,14.69
2023-05-20T18:51:44.395Z,14.50
2023-05-20T18:54:12.403Z,14.44
2023-05-20T18:56:40.511Z,14.34
2023-05-20T18:59:08.842Z,14.25
2023-05-20T19:01:36.675Z,14.30
2023-05-20T19:04:06.244Z,14.25
2023-05-20T19:06:34.884Z,14.09
2023-05-20T19:09:02.750Z,14.01
2023-05-20T19:11:31.699Z,13.91
2023-05-20T19:13:59.776Z,13.80
2023-05-20T19:16:27.562Z,13.75
2023-05-20T19:18:55.239Z,13.71
2023-05-20T19:21:24.416Z,13.57
2023-05-20T19:23:52.303Z,13.49
2023-05-20T19:26:20.006Z,13.39
2023-05-20T19:28:47.965Z,13.30
2023-05-20T19:31:21.134Z,13.21
2023-05-20T19:33:49.275Z,13.14
2023-05-20T19:36:17.562Z,13.06
2023-05-20T19:38:46.754Z,13.00
2023-05-20T19:41:15.373Z,12.96
2023-05-20T19:43:43.010Z,12.94
2023-05-20T19:46:11.104Z,12.90
2023-05-20T19:48:38.782Z,12.90
2023-05-20T19:51:06.956Z,12.87
2023-05-20T19:53:34.791Z,12.78
2023-05-20T19:56:04.141Z,12.73
2023-05-20T19:58:32.374Z,12.69
2023-05-20T20:01:00.075Z,12.65
2023-05-20T20:03:27.922Z,12.66
2023-05-20T20:05:57.269Z,12.61
2023-05-20T20:08:25.102Z,12.57
2023-05-20T20:10:52.740Z,12.53
2023-05-20T20:13:21.810Z,12.47
2023-05-20T20:15:49.536Z,12.46
2023-05-20T20:18:17.299Z,12.46
2023-05-20T20:20:45.906Z,12.44
2023-05-20T20:23:13.491Z,12.40
2023-05-20T20:25:42.481Z,12.38
2023-05-20T20:28:11.565Z,12.36
2023-05-20T20:30:40.634Z,12.30
2023-05-20T20:33:09.581Z,12.30
2023-05-20T20:35:38.082Z,12.28
2023-05-20T20:38:09.557Z,12.27
2023-05-20T20:40:41.741Z,12.23
2023-05-20T20:43:10.759Z,12.22
2023-05-20T20:45:39.824Z,12.20
2023-05-20T20:48:07.928Z,12.20
2023-05-20T20:50:36.631Z,12.19
2023-05-20T20:53:04.341Z,12.19
2023-05-20T20:55:32.011Z,12.15
2023-05-20T20:58:02.776Z,12.16
2023-05-20T21:00:30.801Z,12.12
2023-05-20T21:02:59.851Z,12.12
2023-05-20T21:05:29.235Z,12.09
2023-05-20T21:07:59.551Z,12.06
2023-05-20T21:10:29.522Z,12.06
2023-05-20T21:12:57.984Z,12.06
2023-05-20T21:15:27.291Z,12.03
2023-05-20T21:17:55.192Z,12.03
2023-05-20T21:20:24.251Z,11.99
2023-05-20T21:22:51.908Z,11.98
2023-05-20T21:25:19.677Z,11.95
2023-05-20T21:27:47.375Z,11.93
2023-05-20T21:30:15.784Z,11.93
2023-05-20T21:32:43.549Z,11.91
2023-05-20T21:35:11.349Z,11.90
2023-05-20T21:37:40.265Z,11.89
2023-05-20T21:40:09.084Z,11.89
2023-05-20T21:42:36.736Z,11.90
2023-05-20T21:45:04.691Z,11.90
2023-05-20T21:47:32.437Z,11.93
2023-05-20T21:50:00.387Z,11.97
2023-05-20T21:52:28.032Z,11.98
2023-05-20T21:54:57.077Z,12.02
2023-05-20T21:57:24.675Z,12.10
2023-05-20T21:59:52.320Z,12.14
2023-05-20T22:02:20.130Z,12.15
2023-05-20T22:04:49.189Z,12.16
2023-05-20T22:07:16.825Z,12.17
2023-05-20T22:09:44.457Z,12.15
2023-05-20T22:12:15.268Z,12.15
2023-05-20T22:14:42.983Z,12.17
2023-05-20T22:17:10.645Z,12.12
2023-05-20T22:19:38.686Z,12.12
2023-05-20T22:22:06.471Z,12.12
2023-05-20T22:24:34.207Z,12.12
2023-05-20T22:27:01.951Z,12.14
2023-05-20T22:29:32.331Z,12.16
2023-05-20T22:32:00.290Z,12.21
2023-05-20T22:34:28.344Z,12.21
2023-05-20T22:36:55.974Z,12.23
2023-05-20T22:39:23.580Z,12.14
2023-05-20T22:41:51.178Z,12.12
2023-05-20T22:44:18.822Z,12.11
2023-05-20T22:46:47.827Z,12.10
2023-05-20T22:49:16.669Z,12.10
2023-05-20T22:51:44.253Z,12.08
2023-05-20T22:54:12.034Z,12.05
2023-05-20T22:56:39.807Z,12.00
2023-05-20T22:59:07.457Z,11.99
2023-05-20T23:01:35.258Z,11.92
2023-05-20T23:04:04.664Z,11.89
2023-05-20T23:06:32.750Z,11.90
2023-05-20T23:09:00.396Z,11.90
2023-05-20T23:11:28.033Z,11.92
2023-05-20T23:13:55.612Z,11.91
2023-05-20T23:16:26.231Z,11.90
2023-05-20T23:18:54.004Z,11.95
2023-05-20T23:21:23.348Z,11.99
2023-05-20T23:23:51.113Z,12.00
2023-05-20T23:26:18.736Z,12.01
2023-05-20T23:28:47.809Z,12.00
2023-05-20T23:31:15.740Z,11.97
2023-05-20T23:33:43.669Z,11.99
2023-05-20T23:36:12.425Z,11.97
2023-05-20T23:38:41.693Z,11.98
2023-05-20T23:41:09.406Z,12.06
2023-05-20T23:43:37.032Z,12.05
2023-05-20T23:46:04.758Z,12.07
2023-05-20T23:48:32.864Z,12.06
2023-05-20T23:51:00.588Z,12.00
2023-05-20T23:53:28.214Z,12.06
2023-05-20T23:55:57.169Z,12.07
2023-05-20T23:58:24.996Z,12.08
